sensor_id;sensor_type;location;lat;lon;timestamp;temperature;humidity
83120;SHT31;73001;51.784;4.660;2024-03-07T00:00:09;8.29;74.86
83120;SHT31;73001;51.784;4.660;2024-03-07T00:02:46;8.22;75.08
83120;SHT31;73001;51.784;4.660;2024-03-07T00:05:16;8.22;75.41
83120;SHT31;73001;51.784;4.660;2024-03-07T00:07:42;8.22;75.58
83120;SHT31;73001;51.784;4.660;2024-03-07T00:10:09;8.22;75.73
83120;SHT31;73001;51.784;4.660;2024-03-07T00:12:36;8.22;75.75
83120;SHT31;73001;51.784;4.660;2024-03-07T00:15:08;8.19;75.79
83120;SHT31;73001;51.784;4.660;2024-03-07T00:17:34;8.22;75.72
83120;SHT31;73001;51.784;4.660;2024-03-07T00:20:01;8.19;75.64
83120;SHT31;73001;51.784;4.660;2024-03-07T00:22:27;8.15;75.58
83120;SHT31;73001;51.784;4.660;2024-03-07T00:24:55;8.13;75.52
83120;SHT31;73001;51.784;4.660;2024-03-07T00:27:22;8.10;75.70
83120;SHT31;73001;51.784;4.660;2024-03-07T00:29:48;8.06;75.55
83120;SHT31;73001;51.784;4.660;2024-03-07T00:32:22;8.06;75.67
83120;SHT31;73001;51.784;4.660;2024-03-07T00:34:48;7.98;75.62
83120;SHT31;73001;51.784;4.660;2024-03-07T00:37:17;7.96;75.75
83120;SHT31;73001;51.784;4.660;2024-03-07T00:39:43;7.94;76.02
83120;SHT31;73001;51.784;4.660;2024-03-07T00:42:09;7.91;75.98
83120;SHT31;73001;51.784;4.660;2024-03-07T00:44:35;7.84;76.07
83120;SHT31;73001;51.784;4.660;2024-03-07T00:47:01;7.75;76.08
83120;SHT31;73001;51.784;4.660;2024-03-07T00:49:30;7.72;76.11
83120;SHT31;73001;51.784;4.660;2024-03-07T00:51:57;7.71;76.07
83120;SHT31;73001;51.784;4.660;2024-03-07T00:54:23;7.65;76.18
83120;SHT31;73001;51.784;4.660;2024-03-07T00:56:49;7.62;75.97
83120;SHT31;73001;51.784;4.660;2024-03-07T00:59:17;7.55;75.86
83120;SHT31;73001;51.784;4.660;2024-03-07T01:01:43;7.53;76.09
83120;SHT31;73001;51.784;4.660;2024-03-07T01:04:09;7.44;76.23
83120;SHT31;73001;51.784;4.660;2024-03-07T01:06:35;7.43;76.39
83120;SHT31;73001;51.784;4.660;2024-03-07T01:09:04;7.41;76.52
83120;SHT31;73001;51.784;4.660;2024-03-07T01:11:30;7.40;76.41
83120;SHT31;73001;51.784;4.660;2024-03-07T01:13:55;7.35;76.59
83120;SHT31;73001;51.784;4.660;2024-03-07T01:16:21;7.34;76.70
83120;SHT31;73001;51.784;4.660;2024-03-07T01:18:47;7.31;76.81
83120;SHT31;73001;51.784;4.660;2024-03-07T01:21:12;7.34;77.07
83120;SHT31;73001;51.784;4.660;2024-03-07T01:23:38;7.35;77.25
83120;SHT31;73001;51.784;4.660;2024-03-07T01:26:04;7.35;77.20
83120;SHT31;73001;51.784;4.660;2024-03-07T01:28:29;7.33;76.89
83120;SHT31;73001;51.784;4.660;2024-03-07T01:30:57;7.33;77.20
83120;SHT31;73001;51.784;4.660;2024-03-07T01:33:24;7.28;77.13
83120;SHT31;73001;51.784;4.660;2024-03-07T01:35:49;7.24;76.94
83120;SHT31;73001;51.784;4.660;2024-03-07T01:38:16;7.28;77.21
83120;SHT31;73001;51.784;4.660;2024-03-07T01:40:43;7.23;77.40
83120;SHT31;73001;51.784;4.660;2024-03-07T01:43:09;7.23;77.49
83120;SHT31;73001;51.784;4.660;2024-03-07T01:45:36;7.19;77.51
83120;SHT31;73001;51.784;4.660;2024-03-07T01:48:06;7.17;77.45
83120;SHT31;73001;51.784;4.660;2024-03-07T01:50:33;7.16;77.57
83120;SHT31;73001;51.784;4.660;2024-03-07T01:52:59;7.17;77.65
83120;SHT31;73001;51.784;4.660;2024-03-07T01:55:26;7.14;77.65
83120;SHT31;73001;51.784;4.660;2024-03-07T01:57:56;7.16;77.61
83120;SHT31;73001;51.784;4.660;2024-03-07T02:00:23;7.12;77.68
83120;SHT31;73001;51.784;4.660;2024-03-07T02:02:49;7.13;78.01
83120;SHT31;73001;51.784;4.660;2024-03-07T02:05:14;7.12;77.98
83120;SHT31;73001;51.784;4.660;2024-03-07T02:07:43;7.12;77.77
83120;SHT31;73001;51.784;4.660;2024-03-07T02:10:09;7.10;77.69
83120;SHT31;73001;51.784;4.660;2024-03-07T02:12:35;7.09;77.80
83120;SHT31;73001;51.784;4.660;2024-03-07T02:15:01;7.07;77.77
83120;SHT31;73001;51.784;4.660;2024-03-07T02:17:28;7.03;77.87
83120;SHT31;73001;51.784;4.660;2024-03-07T02:19:54;7.04;77.81
83120;SHT31;73001;51.784;4.660;2024-03-07T02:22:19;7.02;77.84
83120;SHT31;73001;51.784;4.660;2024-03-07T02:24:45;6.97;77.87
83120;SHT31;73001;51.784;4.660;2024-03-07T02:27:12;6.96;77.90
83120;SHT31;73001;51.784;4.660;2024-03-07T02:29:40;6.95;77.85
83120;SHT31;73001;51.784;4.660;2024-03-07T02:32:06;6.93;77.83
83120;SHT31;73001;51.784;4.660;2024-03-07T02:34:32;6.88;77.76
83120;SHT31;73001;51.784;4.660;2024-03-07T02:36:57;6.88;77.85
83120;SHT31;73001;51.784;4.660;2024-03-07T02:39:23;6.85;77.81
83120;SHT31;73001;51.784;4.660;2024-03-07T02:41:50;6.81;77.98
83120;SHT31;73001;51.784;4.660;2024-03-07T02:44:16;6.72;78.23
83120;SHT31;73001;51.784;4.660;2024-03-07T02:46:42;6.76;78.25
83120;SHT31;73001;51.784;4.660;2024-03-07T02:49:07;6.75;78.35
83120;SHT31;73001;51.784;4.660;2024-03-07T02:51:33;6.72;78.44
83120;SHT31;73001;51.784;4.660;2024-03-07T02:53:58;6.75;78.47
83120;SHT31;73001;51.784;4.660;2024-03-07T02:56:24;6.75;78.52
83120;SHT31;73001;51.784;4.660;2024-03-07T02:58:52;6.79;78.56
83120;SHT31;73001;51.784;4.660;2024-03-07T03:01:18;6.79;78.36
83120;SHT31;73001;51.784;4.660;2024-03-07T03:03:43;6.82;78.27
83120;SHT31;73001;51.784;4.660;2024-03-07T03:06:09;6.78;78.34
83120;SHT31;73001;51.784;4.660;2024-03-07T03:08:35;6.79;78.39
83120;SHT31;73001;51.784;4.660;2024-03-07T03:11:01;6.76;78.37
83120;SHT31;73001;51.784;4.660;2024-03-07T03:13:27;6.76;78.45
83120;SHT31;73001;51.784;4.660;2024-03-07T03:15:53;6.76;78.50
83120;SHT31;73001;51.784;4.660;2024-03-07T03:18:21;6.76;78.54
83120;SHT31;73001;51.784;4.660;2024-03-07T03:20:47;6.76;78.37
83120;SHT31;73001;51.784;4.660;2024-03-07T03:23:13;6.81;78.31
83120;SHT31;73001;51.784;4.660;2024-03-07T03:25:40;6.75;78.53
83120;SHT31;73001;51.784;4.660;2024-03-07T03:28:06;6.78;78.18
83120;SHT31;73001;51.784;4.660;2024-03-07T03:30:38;6.75;78.30
83120;SHT31;73001;51.784;4.660;2024-03-07T03:33:05;6.75;78.41
83120;SHT31;73001;51.784;4.660;2024-03-07T03:35:35;6.73;78.38
83120;SHT31;73001;51.784;4.660;2024-03-07T03:38:00;6.71;78.44
83120;SHT31;73001;51.784;4.660;2024-03-07T03:40:26;6.75;78.49
83120;SHT31;73001;51.784;4.660;2024-03-07T03:42:51;6.75;78.48
83120;SHT31;73001;51.784;4.660;2024-03-07T03:45:17;6.75;78.35
83120;SHT31;73001;51.784;4.660;2024-03-07T03:47:43;6.75;78.42
83120;SHT31;73001;51.784;4.660;2024-03-07T03:50:11;6.78;78.36
83120;SHT31;73001;51.784;4.660;2024-03-07T03:52:39;6.78;78.32
83120;SHT31;73001;51.784;4.660;2024-03-07T03:55:04;6.78;78.26
83120;SHT31;73001;51.784;4.660;2024-03-07T03:57:39;6.76;78.44
83120;SHT31;73001;51.784;4.660;2024-03-07T04:00:06;6.85;78.37
83120;SHT31;73001;51.784;4.660;2024-03-07T04:02:41;6.86;78.38
83120;SHT31;73001;51.784;4.660;2024-03-07T04:05:11;6.88;78.32
83120;SHT31;73001;51.784;4.660;2024-03-07T04:07:39;6.89;78.15
83120;SHT31;73001;51.784;4.660;2024-03-07T04:10:06;6.90;78.04
83120;SHT31;73001;51.784;4.660;2024-03-07T04:12:40;6.86;78.16
83120;SHT31;73001;51.784;4.660;2024-03-07T04:15:07;6.85;78.08
83120;SHT31;73001;51.784;4.660;2024-03-07T04:17:34;6.82;78.19
83120;SHT31;73001;51.784;4.660;2024-03-07T04:20:03;6.88;78.06
83120;SHT31;73001;51.784;4.660;2024-03-07T04:22:34;6.83;77.92
83120;SHT31;73001;51.784;4.660;2024-03-07T04:25:01;6.85;77.88
83120;SHT31;73001;51.784;4.660;2024-03-07T04:27:27;6.83;78.00
83120;SHT31;73001;51.784;4.660;2024-03-07T04:29:53;6.86;77.91
83120;SHT31;73001;51.784;4.660;2024-03-07T04:32:19;6.79;78.05
83120;SHT31;73001;51.784;4.660;2024-03-07T04:34:44;6.75;78.18
83120;SHT31;73001;51.784;4.660;2024-03-07T04:37:10;6.69;78.31
83120;SHT31;73001;51.784;4.660;2024-03-07T04:39:36;6.64;78.47
83120;SHT31;73001;51.784;4.660;2024-03-07T04:42:06;6.69;78.36
83120;SHT31;73001;51.784;4.660;2024-03-07T04:44:34;6.65;78.32
83120;SHT31;73001;51.784;4.660;2024-03-07T04:47:02;6.68;78.43
83120;SHT31;73001;51.784;4.660;2024-03-07T04:49:30;6.68;78.30
83120;SHT31;73001;51.784;4.660;2024-03-07T04:51:57;6.65;78.28
83120;SHT31;73001;51.784;4.660;2024-03-07T04:54:27;6.64;78.38
83120;SHT31;73001;51.784;4.660;2024-03-07T04:56:53;6.67;78.26
83120;SHT31;73001;51.784;4.660;2024-03-07T04:59:20;6.67;78.11
83120;SHT31;73001;51.784;4.660;2024-03-07T05:01:48;6.71;78.05
83120;SHT31;73001;51.784;4.660;2024-03-07T05:04:14;6.69;78.06
83120;SHT31;73001;51.784;4.660;2024-03-07T05:06:40;6.71;77.95
83120;SHT31;73001;51.784;4.660;2024-03-07T05:09:08;6.72;77.99
83120;SHT31;73001;51.784;4.660;2024-03-07T05:11:35;6.71;77.93
83120;SHT31;73001;51.784;4.660;2024-03-07T05:14:01;6.68;78.18
83120;SHT31;73001;51.784;4.660;2024-03-07T05:16:28;6.67;78.27
83120;SHT31;73001;51.784;4.660;2024-03-07T05:18:54;6.65;78.23
83120;SHT31;73001;51.784;4.660;2024-03-07T05:21:23;6.67;78.12
83120;SHT31;73001;51.784;4.660;2024-03-07T05:24:00;6.65;78.13
83120;SHT31;73001;51.784;4.660;2024-03-07T05:26:26;6.64;78.18
83120;SHT31;73001;51.784;4.660;2024-03-07T05:28:52;6.64;78.02
83120;SHT31;73001;51.784;4.660;2024-03-07T05:31:20;6.71;77.92
83120;SHT31;73001;51.784;4.660;2024-03-07T05:33:46;6.65;78.09
83120;SHT31;73001;51.784;4.660;2024-03-07T05:36:12;6.65;78.11
83120;SHT31;73001;51.784;4.660;2024-03-07T05:38:44;6.62;78.15
83120;SHT31;73001;51.784;4.660;2024-03-07T05:41:13;6.62;78.08
83120;SHT31;73001;51.784;4.660;2024-03-07T05:43:39;6.64;77.94
83120;SHT31;73001;51.784;4.660;2024-03-07T05:46:05;6.61;78.00
83120;SHT31;73001;51.784;4.660;2024-03-07T05:48:33;6.59;78.01
83120;SHT31;73001;51.784;4.660;2024-03-07T05:50:59;6.62;77.66
83120;SHT31;73001;51.784;4.660;2024-03-07T05:53:25;6.56;77.84
83120;SHT31;73001;51.784;4.660;2024-03-07T05:55:50;6.53;77.96
83120;SHT31;73001;51.784;4.660;2024-03-07T05:58:16;6.56;77.82
83120;SHT31;73001;51.784;4.660;2024-03-07T06:00:45;6.49;77.69
83120;SHT31;73001;51.784;4.660;2024-03-07T06:03:20;6.58;77.46
83120;SHT31;73001;51.784;4.660;2024-03-07T06:05:46;6.53;77.46
83120;SHT31;73001;51.784;4.660;2024-03-07T06:08:15;6.52;77.50
83120;SHT31;73001;51.784;4.660;2024-03-07T06:10:44;6.53;77.46
83120;SHT31;73001;51.784;4.660;2024-03-07T06:13:11;6.49;77.33
83120;SHT31;73001;51.784;4.660;2024-03-07T06:15:43;6.48;77.38
83120;SHT31;73001;51.784;4.660;2024-03-07T06:18:08;6.46;77.38
83120;SHT31;73001;51.784;4.660;2024-03-07T06:20:36;6.48;77.25
83120;SHT31;73001;51.784;4.660;2024-03-07T06:23:03;6.45;77.37
83120;SHT31;73001;51.784;4.660;2024-03-07T06:25:34;6.48;77.14
83120;SHT31;73001;51.784;4.660;2024-03-07T06:28:03;6.49;77.14
83120;SHT31;73001;51.784;4.660;2024-03-07T06:30:41;6.46;77.21
83120;SHT31;73001;51.784;4.660;2024-03-07T06:33:08;6.44;77.19
83120;SHT31;73001;51.784;4.660;2024-03-07T06:35:35;6.44;77.08
83120;SHT31;73001;51.784;4.660;2024-03-07T06:38:05;6.40;77.18
83120;SHT31;73001;51.784;4.660;2024-03-07T06:40:44;6.48;77.02
83120;SHT31;73001;51.784;4.660;2024-03-07T06:43:11;6.42;77.18
83120;SHT31;73001;51.784;4.660;2024-03-07T06:45:37;6.46;77.21
83120;SHT31;73001;51.784;4.660;2024-03-07T06:48:06;6.48;77.11
83120;SHT31;73001;51.784;4.660;2024-03-07T06:50:34;6.48;77.06
83120;SHT31;73001;51.784;4.660;2024-03-07T06:53:00;6.46;77.09
83120;SHT31;73001;51.784;4.660;2024-03-07T06:55:26;6.52;77.10
83120;SHT31;73001;51.784;4.660;2024-03-07T06:57:52;6.56;76.90
83120;SHT31;73001;51.784;4.660;2024-03-07T07:00:19;6.61;76.79
83120;SHT31;73001;51.784;4.660;2024-03-07T07:02:46;6.65;76.65
83120;SHT31;73001;51.784;4.660;2024-03-07T07:05:12;6.67;76.61
83120;SHT31;73001;51.784;4.660;2024-03-07T07:07:41;6.68;76.55
83120;SHT31;73001;51.784;4.660;2024-03-07T07:10:08;6.71;76.59
83120;SHT31;73001;51.784;4.660;2024-03-07T07:12:37;6.75;76.45
83120;SHT31;73001;51.784;4.660;2024-03-07T07:15:02;6.79;76.28
83120;SHT31;73001;51.784;4.660;2024-03-07T07:17:29;6.83;76.04
83120;SHT31;73001;51.784;4.660;2024-03-07T07:19:57;6.79;76.41
83120;SHT31;73001;51.784;4.660;2024-03-07T07:22:24;6.83;76.35
83120;SHT31;73001;51.784;4.660;2024-03-07T07:24:49;6.95;76.11
83120;SHT31;73001;51.784;4.660;2024-03-07T07:27:15;6.95;76.06
83120;SHT31;73001;51.784;4.660;2024-03-07T07:29:41;7.03;75.91
83120;SHT31;73001;51.784;4.660;2024-03-07T07:32:07;7.10;75.58
83120;SHT31;73001;51.784;4.660;2024-03-07T07:34:33;7.19;75.59
83120;SHT31;73001;51.784;4.660;2024-03-07T07:36:59;7.21;75.49
83120;SHT31;73001;51.784;4.660;2024-03-07T07:39:24;7.30;75.44
83120;SHT31;73001;51.784;4.660;2024-03-07T07:41:50;7.38;75.32
83120;SHT31;73001;51.784;4.660;2024-03-07T07:44:15;7.44;74.86
83120;SHT31;73001;51.784;4.660;2024-03-07T07:46:41;7.57;74.83
83120;SHT31;73001;51.784;4.660;2024-03-07T07:49:07;7.62;74.62
83120;SHT31;73001;51.784;4.660;2024-03-07T07:51:32;7.68;74.55
83120;SHT31;73001;51.784;4.660;2024-03-07T07:53:57;7.70;74.31
83120;SHT31;73001;51.784;4.660;2024-03-07T07:56:24;7.84;74.07
83120;SHT31;73001;51.784;4.660;2024-03-07T07:58:51;7.84;73.89
83120;SHT31;73001;51.784;4.660;2024-03-07T08:01:17;8.01;73.78
83120;SHT31;73001;51.784;4.660;2024-03-07T08:03:44;8.21;73.60
83120;SHT31;73001;51.784;4.660;2024-03-07T08:06:10;8.49;72.70
83120;SHT31;73001;51.784;4.660;2024-03-07T08:08:35;8.81;72.19
83120;SHT31;73001;51.784;4.660;2024-03-07T08:11:01;9.24;70.77
83120;SHT31;73001;51.784;4.660;2024-03-07T08:13:27;9.98;69.19
83120;SHT31;73001;51.784;4.660;2024-03-07T08:15:52;10.75;66.58
83120;SHT31;73001;51.784;4.660;2024-03-07T08:18:19;11.46;64.61
83120;SHT31;73001;51.784;4.660;2024-03-07T08:20:45;12.04;61.79
83120;SHT31;73001;51.784;4.660;2024-03-07T08:23:12;12.66;61.23
83120;SHT31;73001;51.784;4.660;2024-03-07T08:25:40;13.21;58.70
83120;SHT31;73001;51.784;4.660;2024-03-07T08:28:06;13.81;57.22
83120;SHT31;73001;51.784;4.660;2024-03-07T08:30:31;14.20;54.79
83120;SHT31;73001;51.784;4.660;2024-03-07T08:32:57;14.57;53.32
83120;SHT31;73001;51.784;4.660;2024-03-07T08:35:24;14.92;52.62
83120;SHT31;73001;51.784;4.660;2024-03-07T08:37:52;15.25;50.92
83120;SHT31;73001;51.784;4.660;2024-03-07T08:40:30;15.49;51.14
83120;SHT31;73001;51.784;4.660;2024-03-07T08:42:59;15.87;50.25
83120;SHT31;73001;51.784;4.660;2024-03-07T08:45:27;16.31;49.70
83120;SHT31;73001;51.784;4.660;2024-03-07T08:47:54;16.90;48.52
83120;SHT31;73001;51.784;4.660;2024-03-07T08:50:20;17.19;46.55
83120;SHT31;73001;51.784;4.660;2024-03-07T08:52:46;17.30;46.07
83120;SHT31;73001;51.784;4.660;2024-03-07T08:55:19;17.46;45.25
83120;SHT31;73001;51.784;4.660;2024-03-07T08:57:45;17.70;43.75
83120;SHT31;73001;51.784;4.660;2024-03-07T09:00:13;17.48;45.48
83120;SHT31;73001;51.784;4.660;2024-03-07T09:02:58;17.84;45.48
83120;SHT31;73001;51.784;4.660;2024-03-07T09:05:25;18.40;44.40
83120;SHT31;73001;51.784;4.660;2024-03-07T09:07:52;18.35;43.16
83120;SHT31;73001;51.784;4.660;2024-03-07T09:10:18;18.30;43.82
83120;SHT31;73001;51.784;4.660;2024-03-07T09:12:45;18.53;42.12
83120;SHT31;73001;51.784;4.660;2024-03-07T09:15:11;18.83;42.70
83120;SHT31;73001;51.784;4.660;2024-03-07T09:17:41;19.17;41.85
83120;SHT31;73001;51.784;4.660;2024-03-07T09:20:08;19.34;40.58
83120;SHT31;73001;51.784;4.660;2024-03-07T09:22:40;19.18;40.69
83120;SHT31;73001;51.784;4.660;2024-03-07T09:25:07;19.21;40.89
83120;SHT31;73001;51.784;4.660;2024-03-07T09:27:33;19.35;40.68
83120;SHT31;73001;51.784;4.660;2024-03-07T09:29:58;19.49;40.37
83120;SHT31;73001;51.784;4.660;2024-03-07T09:32:24;19.81;40.42
83120;SHT31;73001;51.784;4.660;2024-03-07T09:34:49;20.19;39.38
83120;SHT31;73001;51.784;4.660;2024-03-07T09:37:15;20.50;38.30
83120;SHT31;73001;51.784;4.660;2024-03-07T09:39:40;20.81;36.94
83120;SHT31;73001;51.784;4.660;2024-03-07T09:42:07;21.02;37.05
83120;SHT31;73001;51.784;4.660;2024-03-07T09:44:36;21.32;36.38
83120;SHT31;73001;51.784;4.660;2024-03-07T09:47:05;21.50;35.92
83120;SHT31;73001;51.784;4.660;2024-03-07T09:49:33;21.67;36.07
83120;SHT31;73001;51.784;4.660;2024-03-07T09:52:04;21.74;35.96
83120;SHT31;73001;51.784;4.660;2024-03-07T09:54:29;22.31;35.21
83120;SHT31;73001;51.784;4.660;2024-03-07T09:56:59;22.52;35.14
83120;SHT31;73001;51.784;4.660;2024-03-07T09:59:28;22.66;34.88
83120;SHT31;73001;51.784;4.660;2024-03-07T10:01:55;22.72;34.41
83120;SHT31;73001;51.784;4.660;2024-03-07T10:04:44;22.76;34.51
83120;SHT31;73001;51.784;4.660;2024-03-07T10:07:16;22.86;34.64
83120;SHT31;73001;51.784;4.660;2024-03-07T10:09:42;23.33;34.10
83120;SHT31;73001;51.784;4.660;2024-03-07T10:12:09;23.33;33.81
83120;SHT31;73001;51.784;4.660;2024-03-07T10:14:38;23.64;33.52
83120;SHT31;73001;51.784;4.660;2024-03-07T10:17:04;23.60;33.05
83120;SHT31;73001;51.784;4.660;2024-03-07T10:19:30;23.53;33.08
83120;SHT31;73001;51.784;4.660;2024-03-07T10:21:56;23.51;33.12
83120;SHT31;73001;51.784;4.660;2024-03-07T10:24:27;23.17;33.99
83120;SHT31;73001;51.784;4.660;2024-03-07T10:26:53;23.49;34.08
83120;SHT31;73001;51.784;4.660;2024-03-07T10:29:22;23.82;32.97
83120;SHT31;73001;51.784;4.660;2024-03-07T10:31:49;23.85;32.17
83120;SHT31;73001;51.784;4.660;2024-03-07T10:34:15;23.87;32.10
83120;SHT31;73001;51.784;4.660;2024-03-07T10:36:43;24.15;31.45
83120;SHT31;73001;51.784;4.660;2024-03-07T10:39:09;24.06;31.92
83120;SHT31;73001;51.784;4.660;2024-03-07T10:41:49;23.87;32.44
83120;SHT31;73001;51.784;4.660;2024-03-07T10:44:25;24.21;31.80
83120;SHT31;73001;51.784;4.660;2024-03-07T10:46:55;24.46;31.31
83120;SHT31;73001;51.784;4.660;2024-03-07T10:49:25;24.24;31.77
83120;SHT31;73001;51.784;4.660;2024-03-07T10:52:06;24.15;31.73
83120;SHT31;73001;51.784;4.660;2024-03-07T10:54:48;23.97;32.45
83120;SHT31;73001;51.784;4.660;2024-03-07T10:57:37;23.87;32.16
83120;SHT31;73001;51.784;4.660;2024-03-07T11:00:08;23.78;32.55
83120;SHT31;73001;51.784;4.660;2024-03-07T11:02:56;23.88;32.71
83120;SHT31;73001;51.784;4.660;2024-03-07T11:05:26;24.02;32.11
83120;SHT31;73001;51.784;4.660;2024-03-07T11:07:57;24.01;31.99
83120;SHT31;73001;51.784;4.660;2024-03-07T11:10:24;24.05;32.04
83120;SHT31;73001;51.784;4.660;2024-03-07T11:12:50;24.11;31.09
83120;SHT31;73001;51.784;4.660;2024-03-07T11:15:18;23.81;31.97
83120;SHT31;73001;51.784;4.660;2024-03-07T11:17:49;23.67;31.26
83120;SHT31;73001;51.784;4.660;2024-03-07T11:20:23;23.70;31.36
83120;SHT31;73001;51.784;4.660;2024-03-07T11:22:49;23.73;31.60
83120;SHT31;73001;51.784;4.660;2024-03-07T11:25:18;23.79;31.42
83120;SHT31;73001;51.784;4.660;2024-03-07T11:27:58;23.91;31.12
83120;SHT31;73001;51.784;4.660;2024-03-07T11:30:25;24.02;30.98
83120;SHT31;73001;51.784;4.660;2024-03-07T11:32:53;24.12;31.03
83120;SHT31;73001;51.784;4.660;2024-03-07T11:35:19;24.26;31.58
83120;SHT31;73001;51.784;4.660;2024-03-07T11:37:56;24.12;30.96
83120;SHT31;73001;51.784;4.660;2024-03-07T11:42:51;24.01;31.41
83120;SHT31;73001;51.784;4.660;2024-03-07T11:45:19;24.22;31.04
83120;SHT31;73001;51.784;4.660;2024-03-07T11:47:54;24.04;31.65
83120;SHT31;73001;51.784;4.660;2024-03-07T11:50:29;23.98;31.91
83120;SHT31;73001;51.784;4.660;2024-03-07T11:53:01;23.57;31.98
83120;SHT31;73001;51.784;4.660;2024-03-07T11:55:27;22.85;33.26
83120;SHT31;73001;51.784;4.660;2024-03-07T11:57:58;21.47;34.31
83120;SHT31;73001;51.784;4.660;2024-03-07T12:00:25;20.47;36.36
83120;SHT31;73001;51.784;4.660;2024-03-07T12:02:55;19.58;37.87
83120;SHT31;73001;51.784;4.660;2024-03-07T12:05:20;19.10;38.19
83120;SHT31;73001;51.784;4.660;2024-03-07T12:07:46;18.61;39.30
83120;SHT31;73001;51.784;4.660;2024-03-07T12:10:12;18.40;39.72
83120;SHT31;73001;51.784;4.660;2024-03-07T12:12:38;17.63;40.89
83120;SHT31;73001;51.784;4.660;2024-03-07T12:15:05;17.06;41.39
83120;SHT31;73001;51.784;4.660;2024-03-07T12:17:35;16.68;42.56
83120;SHT31;73001;51.784;4.660;2024-03-07T12:20:01;16.18;44.05
83120;SHT31;73001;51.784;4.660;2024-03-07T12:22:47;15.86;44.98
83120;SHT31;73001;51.784;4.660;2024-03-07T12:25:18;15.60;44.83
83120;SHT31;73001;51.784;4.660;2024-03-07T12:27:48;15.22;45.31
83120;SHT31;73001;51.784;4.660;2024-03-07T12:30:26;14.89;45.93
83120;SHT31;73001;51.784;4.660;2024-03-07T12:32:52;14.65;47.09
83120;SHT31;73001;51.784;4.660;2024-03-07T12:35:18;14.53;47.26
83120;SHT31;73001;51.784;4.660;2024-03-07T12:37:45;14.57;47.13
83120;SHT31;73001;51.784;4.660;2024-03-07T12:40:12;14.53;46.74
83120;SHT31;73001;51.784;4.660;2024-03-07T12:42:50;14.36;46.99
83120;SHT31;73001;51.784;4.660;2024-03-07T12:45:16;14.14;46.19
83120;SHT31;73001;51.784;4.660;2024-03-07T12:47:48;13.76;47.43
83120;SHT31;73001;51.784;4.660;2024-03-07T12:50:20;13.66;47.46
83120;SHT31;73001;51.784;4.660;2024-03-07T12:52:46;13.66;48.48
83120;SHT31;73001;51.784;4.660;2024-03-07T12:55:16;13.73;48.42
83120;SHT31;73001;51.784;4.660;2024-03-07T12:57:47;13.95;48.22
83120;SHT31;73001;51.784;4.660;2024-03-07T13:00:16;14.08;47.31
83120;SHT31;73001;51.784;4.660;2024-03-07T13:02:49;14.17;47.91
83120;SHT31;73001;51.784;4.660;2024-03-07T13:05:15;14.23;47.70
83120;SHT31;73001;51.784;4.660;2024-03-07T13:07:51;14.08;47.16
83120;SHT31;73001;51.784;4.660;2024-03-07T13:10:17;13.90;48.20
83120;SHT31;73001;51.784;4.660;2024-03-07T13:12:46;13.86;48.36
83120;SHT31;73001;51.784;4.660;2024-03-07T13:15:15;13.87;48.20
83120;SHT31;73001;51.784;4.660;2024-03-07T13:17:41;13.93;48.48
83120;SHT31;73001;51.784;4.660;2024-03-07T13:20:11;13.93;49.32
83120;SHT31;73001;51.784;4.660;2024-03-07T13:22:41;13.89;49.20
83120;SHT31;73001;51.784;4.660;2024-03-07T13:25:09;13.85;49.24
83120;SHT31;73001;51.784;4.660;2024-03-07T13:28:05;13.82;48.70
83120;SHT31;73001;51.784;4.660;2024-03-07T13:30:35;13.79;49.17
83120;SHT31;73001;51.784;4.660;2024-03-07T13:33:03;13.63;49.29
83120;SHT31;73001;51.784;4.660;2024-03-07T13:35:29;13.54;49.69
83120;SHT31;73001;51.784;4.660;2024-03-07T13:37:55;13.52;49.88
83120;SHT31;73001;51.784;4.660;2024-03-07T13:40:23;13.54;49.98
83120;SHT31;73001;51.784;4.660;2024-03-07T13:42:59;13.50;49.20
83120;SHT31;73001;51.784;4.660;2024-03-07T13:45:26;13.32;49.55
83120;SHT31;73001;51.784;4.660;2024-03-07T13:47:55;13.22;50.64
83120;SHT31;73001;51.784;4.660;2024-03-07T13:50:25;13.15;50.33
83120;SHT31;73001;51.784;4.660;2024-03-07T13:52:52;13.15;50.13
83120;SHT31;73001;51.784;4.660;2024-03-07T14:12:49;12.66;52.05
83120;SHT31;73001;51.784;4.660;2024-03-07T14:15:55;12.94;51.92
83120;SHT31;73001;51.784;4.660;2024-03-07T14:19:08;13.11;50.85
83120;SHT31;73001;51.784;4.660;2024-03-07T14:25:03;13.00;51.24
83120;SHT31;73001;51.784;4.660;2024-03-07T14:27:36;13.03;51.99
83120;SHT31;73001;51.784;4.660;2024-03-07T14:32:39;13.04;52.13
83120;SHT31;73001;51.784;4.660;2024-03-07T14:38:22;13.11;52.26
83120;SHT31;73001;51.784;4.660;2024-03-07T14:40:52;13.18;51.65
83120;SHT31;73001;51.784;4.660;2024-03-07T14:43:19;13.22;51.39
83120;SHT31;73001;51.784;4.660;2024-03-07T14:45:46;13.25;50.99
83120;SHT31;73001;51.784;4.660;2024-03-07T14:48:13;13.15;52.17
83120;SHT31;73001;51.784;4.660;2024-03-07T14:50:44;13.18;50.62
83120;SHT31;73001;51.784;4.660;2024-03-07T14:53:12;13.13;51.71
83120;SHT31;73001;51.784;4.660;2024-03-07T14:55:40;13.01;51.50
83120;SHT31;73001;51.784;4.660;2024-03-07T14:58:06;12.97;51.56
83120;SHT31;73001;51.784;4.660;2024-03-07T15:00:38;12.96;51.28
83120;SHT31;73001;51.784;4.660;2024-03-07T15:03:09;12.96;51.88
83120;SHT31;73001;51.784;4.660;2024-03-07T15:05:35;12.94;53.56
83120;SHT31;73001;51.784;4.660;2024-03-07T15:08:02;12.97;54.42
83120;SHT31;73001;51.784;4.660;2024-03-07T15:10:34;12.91;55.09
83120;SHT31;73001;51.784;4.660;2024-03-07T15:13:00;12.94;55.26
83120;SHT31;73001;51.784;4.660;2024-03-07T15:15:26;12.89;54.90
83120;SHT31;73001;51.784;4.660;2024-03-07T15:17:57;12.81;55.40
83120;SHT31;73001;51.784;4.660;2024-03-07T15:20:23;12.66;55.78
83120;SHT31;73001;51.784;4.660;2024-03-07T15:22:54;12.62;56.24
83120;SHT31;73001;51.784;4.660;2024-03-07T15:25:20;12.46;57.10
83120;SHT31;73001;51.784;4.660;2024-03-07T15:27:48;12.33;57.81
83120;SHT31;73001;51.784;4.660;2024-03-07T15:30:19;12.26;58.31
83120;SHT31;73001;51.784;4.660;2024-03-07T15:32:46;12.18;58.62
83120;SHT31;73001;51.784;4.660;2024-03-07T15:35:13;12.09;58.98
83120;SHT31;73001;51.784;4.660;2024-03-07T15:37:45;11.90;59.53
83120;SHT31;73001;51.784;4.660;2024-03-07T15:40:12;11.91;59.44
83120;SHT31;73001;51.784;4.660;2024-03-07T15:42:42;11.87;59.61
83120;SHT31;73001;51.784;4.660;2024-03-07T15:45:14;11.78;60.20
83120;SHT31;73001;51.784;4.660;2024-03-07T15:50:10;11.75;60.30
83120;SHT31;73001;51.784;4.660;2024-03-07T15:52:42;11.74;60.48
83120;SHT31;73001;51.784;4.660;2024-03-07T15:55:09;11.81;60.55
83120;SHT31;73001;51.784;4.660;2024-03-07T15:58:00;11.81;59.84
83120;SHT31;73001;51.784;4.660;2024-03-07T16:00:30;11.74;60.02
83120;SHT31;73001;51.784;4.660;2024-03-07T16:02:57;11.67;60.44
83120;SHT31;73001;51.784;4.660;2024-03-07T16:05:27;11.68;60.35
83120;SHT31;73001;51.784;4.660;2024-03-07T16:07:57;11.61;60.13
83120;SHT31;73001;51.784;4.660;2024-03-07T16:10:28;11.59;60.45
83120;SHT31;73001;51.784;4.660;2024-03-07T16:12:57;11.57;60.82
83120;SHT31;73001;51.784;4.660;2024-03-07T16:15:23;11.46;60.94
83120;SHT31;73001;51.784;4.660;2024-03-07T16:17:50;11.41;61.34